createdAt,value
2022-07-30T00:00:29.627Z,91.99
2022-07-30T00:01:24.942Z,92.01
2022-07-30T00:02:20.179Z,92.23
2022-07-30T00:03:16.679Z,92.19
2022-07-30T00:04:11.914Z,92.04
2022-07-30T00:05:07.670Z,92.06
2022-07-30T00:06:02.906Z,92.06
2022-07-30T00:06:58.319Z,92.15
2022-07-30T00:07:53.387Z,92.05
2022-07-30T00:08:48.659Z,92.06
2022-07-30T00:09:43.865Z,92.15
2022-07-30T00:10:39.241Z,92.28
2022-07-30T00:11:34.920Z,92.35
2022-07-30T00:12:30.137Z,92.37
2022-07-30T00:13:25.400Z,92.45
2022-07-30T00:14:21.141Z,92.34
2022-07-30T00:15:16.621Z,92.34
2022-07-30T00:16:11.805Z,92.34
2022-07-30T00:17:07.105Z,92.37
2022-07-30T00:18:02.155Z,92.58
2022-07-30T00:18:57.246Z,92.38
2022-07-30T00:19:52.327Z,92.25
2022-07-30T00:20:47.323Z,92.25
2022-07-30T00:21:42.366Z,92.51
2022-07-30T00:22:37.417Z,92.50
2022-07-30T00:23:32.669Z,92.42
2022-07-30T00:24:27.889Z,92.34
2022-07-30T00:25:23.000Z,92.40
2022-07-30T00:26:18.095Z,92.29
2022-07-30T00:27:13.202Z,92.34
2022-07-30T00:28:08.335Z,92.28
2022-07-30T00:29:03.335Z,92.47
2022-07-30T00:29:58.290Z,92.48
2022-07-30T00:30:56.126Z,92.53
2022-07-30T00:31:48.387Z,92.52
2022-07-30T00:32:43.487Z,92.46
2022-07-30T00:33:38.624Z,92.42
2022-07-30T00:34:33.566Z,92.49
2022-07-30T00:35:28.661Z,92.51
2022-07-30T00:36:23.880Z,92.48
2022-07-30T00:37:18.873Z,92.40
2022-07-30T00:38:13.930Z,92.30
2022-07-30T00:39:08.972Z,92.06
2022-07-30T00:40:04.063Z,92.10
2022-07-30T00:40:59.091Z,92.18
2022-07-30T00:41:54.176Z,91.96
2022-07-30T00:42:49.279Z,92.10
2022-07-30T00:43:44.220Z,92.27
2022-07-30T00:44:41.028Z,92.20
2022-07-30T00:45:34.562Z,92.20
2022-07-30T00:46:29.832Z,92.16
2022-07-30T00:47:25.179Z,92.11
2022-07-30T00:48:20.527Z,92.09
2022-07-30T00:49:15.795Z,92.06
2022-07-30T00:50:10.999Z,92.11
2022-07-30T00:51:06.227Z,91.94
2022-07-30T00:52:01.452Z,91.85
2022-07-30T00:52:56.660Z,91.96
2022-07-30T00:53:51.925Z,92.03
2022-07-30T00:54:46.995Z,91.93
2022-07-30T00:55:42.061Z,91.97
2022-07-30T00:56:37.157Z,91.88
2022-07-30T00:57:32.226Z,91.92
2022-07-30T00:58:27.349Z,92.04
2022-07-30T00:59:22.422Z,92.18
2022-07-30T01:00:17.523Z,92.13
2022-07-30T01:01:12.673Z,91.92
2022-07-30T01:02:07.694Z,91.86
2022-07-30T01:03:02.703Z,91.77
2022-07-30T01:03:57.655Z,91.64
2022-07-30T01:04:52.807Z,91.61
2022-07-30T01:05:47.771Z,91.51
2022-07-30T01:06:42.851Z,91.39
2022-07-30T01:07:37.963Z,91.39
2022-07-30T01:08:33.049Z,91.46
2022-07-30T01:09:28.150Z,91.33
2022-07-30T01:10:23.221Z,91.29
2022-07-30T01:11:18.441Z,91.34
2022-07-30T01:12:13.524Z,91.23
2022-07-30T01:13:09.478Z,91.16
2022-07-30T01:14:04.679Z,91.24
2022-07-30T01:15:00.029Z,91.27
2022-07-30T01:15:55.159Z,91.32
2022-07-30T01:16:50.415Z,91.54
2022-07-30T01:17:45.660Z,91.75
2022-07-30T01:18:40.890Z,91.86
2022-07-30T01:19:35.885Z,91.91
2022-07-30T01:20:30.938Z,91.80
2022-07-30T01:21:26.038Z,91.63
2022-07-30T01:22:24.154Z,91.56
2022-07-30T01:23:19.584Z,91.64
2022-07-30T01:24:14.809Z,91.72
2022-07-30T01:25:10.060Z,91.60
2022-07-30T01:26:05.277Z,91.70
2022-07-30T01:27:00.984Z,91.76
2022-07-30T01:27:55.827Z,91.94
2022-07-30T01:28:51.193Z,91.95
2022-07-30T01:29:46.452Z,91.89
2022-07-30T01:30:41.658Z,91.94
2022-07-30T01:31:36.902Z,91.90
2022-07-30T01:32:32.143Z,91.88
2022-07-30T01:33:27.497Z,91.83
2022-07-30T01:34:22.858Z,91.88
2022-07-30T01:35:17.834Z,91.94
2022-07-30T01:36:13.075Z,92.07
2022-07-30T01:37:08.406Z,91.99
2022-07-30T01:38:03.505Z,91.86
2022-07-30T01:38:58.755Z,91.83
2022-07-30T01:39:54.003Z,91.85
2022-07-30T01:40:49.217Z,91.96
2022-07-30T01:41:44.502Z,92.01
2022-07-30T01:42:39.756Z,92.11
2022-07-30T01:43:35.023Z,92.29
2022-07-30T01:44:30.382Z,92.43
2022-07-30T01:45:25.638Z,92.36
2022-07-30T01:46:20.915Z,92.38
2022-07-30T01:47:16.125Z,92.36
2022-07-30T01:48:11.360Z,92.28
2022-07-30T01:49:06.732Z,92.24
2022-07-30T01:50:01.829Z,92.26
2022-07-30T01:50:57.166Z,92.27
2022-07-30T01:51:52.409Z,92.48
2022-07-30T01:52:49.038Z,92.64
2022-07-30T01:53:42.845Z,92.61
2022-07-30T01:54:40.647Z,92.46
2022-07-30T01:55:35.741Z,92.33
2022-07-30T01:56:30.949Z,92.09
2022-07-30T01:57:26.247Z,92.05
2022-07-30T01:58:21.748Z,92.13
2022-07-30T01:59:16.978Z,92.17
2022-07-30T02:00:12.204Z,92.33
2022-07-30T02:01:07.442Z,92.47
2022-07-30T02:02:02.333Z,92.24
2022-07-30T02:02:57.554Z,92.08
2022-07-30T02:03:52.733Z,91.90
2022-07-30T02:04:53.725Z,91.81
2022-07-30T02:05:48.945Z,91.93
2022-07-30T02:06:44.273Z,92.05
2022-07-30T02:07:39.543Z,91.99
2022-07-30T02:08:34.911Z,91.99
2022-07-30T02:09:30.263Z,91.79
2022-07-30T02:10:25.367Z,91.72
2022-07-30T02:11:20.614Z,91.68
2022-07-30T02:12:15.879Z,91.61
2022-07-30T02:13:11.092Z,91.62
2022-07-30T02:14:06.333Z,91.64
2022-07-30T02:15:01.601Z,91.67
2022-07-30T02:15:56.793Z,91.76
2022-07-30T02:16:52.024Z,91.84
2022-07-30T02:17:47.279Z,91.99
2022-07-30T02:18:42.640Z,92.07
2022-07-30T02:19:41.752Z,92.11
2022-07-30T02:20:33.494Z,92.19
2022-07-30T02:21:32.156Z,92.22
2022-07-30T02:22:25.180Z,92.30
2022-07-30T02:23:19.450Z,92.49
2022-07-30T02:24:14.652Z,92.52
2022-07-30T02:25:09.909Z,92.36
2022-07-30T02:26:05.125Z,92.04
2022-07-30T02:27:00.625Z,91.82
2022-07-30T02:27:55.589Z,91.69
2022-07-30T02:28:50.815Z,91.65
2022-07-30T02:29:46.037Z,91.60
2022-07-30T02:30:41.384Z,91.52
2022-07-30T02:31:36.893Z,91.44
2022-07-30T02:32:32.031Z,91.41
2022-07-30T02:33:27.239Z,91.45
2022-07-30T02:34:22.486Z,91.64
2022-07-30T02:35:17.840Z,91.62
2022-07-30T02:36:13.038Z,91.35
2022-07-30T02:37:08.285Z,91.01
2022-07-30T02:38:03.527Z,90.87
2022-07-30T02:38:58.746Z,90.78
2022-07-30T02:39:53.955Z,90.73
2022-07-30T02:40:49.166Z,90.64
2022-07-30T02:41:47.934Z,90.56
2022-07-30T02:42:40.674Z,90.62
2022-07-30T02:43:36.152Z,90.58
2022-07-30T02:44:30.223Z,90.58
2022-07-30T02:45:25.434Z,90.63
2022-07-30T02:46:20.693Z,90.56
2022-07-30T02:47:15.920Z,90.47
2022-07-30T02:48:11.391Z,90.46
2022-07-30T02:49:07.544Z,90.50
2022-07-30T02:50:01.782Z,90.49
2022-07-30T02:50:57.021Z,90.50
2022-07-30T02:51:52.481Z,90.50
2022-07-30T02:52:47.811Z,90.59
2022-07-30T02:53:43.056Z,90.38
2022-07-30T02:54:38.265Z,90.31
2022-07-30T02:55:33.469Z,90.46
2022-07-30T02:56:28.867Z,90.42
2022-07-30T02:57:24.092Z,90.25
2022-07-30T02:58:19.341Z,90.22
2022-07-30T02:59:14.412Z,90.14
2022-07-30T03:00:09.481Z,90.10
2022-07-30T03:01:04.578Z,90.16
2022-07-30T03:01:59.724Z,90.28
2022-07-30T03:02:56.718Z,90.42
2022-07-30T03:03:49.807Z,90.43
2022-07-30T03:04:44.796Z,90.51
2022-07-30T03:05:39.879Z,90.60
2022-07-30T03:06:34.974Z,90.64
2022-07-30T03:07:30.070Z,90.51
2022-07-30T03:08:25.035Z,90.38
2022-07-30T03:09:20.122Z,90.30
2022-07-30T03:10:15.175Z,90.25
2022-07-30T03:11:10.279Z,90.20
2022-07-30T03:12:05.370Z,90.22
2022-07-30T03:13:00.388Z,90.33
2022-07-30T03:13:55.452Z,90.53
2022-07-30T03:14:50.679Z,90.60
2022-07-30T03:15:45.995Z,90.51
2022-07-30T03:16:41.323Z,90.32
2022-07-30T03:17:36.915Z,90.19
2022-07-30T03:18:32.247Z,90.21
2022-07-30T03:19:28.159Z,90.18
2022-07-30T03:20:23.317Z,90.25
2022-07-30T03:21:18.672Z,90.24
2022-07-30T03:22:14.452Z,90.10
2022-07-30T03:23:09.662Z,90.04
2022-07-30T03:24:05.116Z,89.90
2022-07-30T03:25:01.143Z,89.93
2022-07-30T03:25:56.572Z,90.00
2022-07-30T03:26:52.101Z,90.17
2022-07-30T03:27:47.429Z,90.09
2022-07-30T03:28:42.792Z,90.16
2022-07-30T03:29:38.461Z,90.23
2022-07-30T03:30:33.675Z,90.12
2022-07-30T03:31:36.374Z,89.93
2022-07-30T03:32:25.970Z,89.86
2022-07-30T03:33:20.540Z,89.77
2022-07-30T03:34:15.860Z,89.74
2022-07-30T03:35:16.921Z,89.81
2022-07-30T03:36:07.996Z,89.86
2022-07-30T03:37:03.183Z,89.89
2022-07-30T03:37:58.273Z,89.80
2022-07-30T03:38:53.967Z,89.76
2022-07-30T03:39:49.226Z,89.76
2022-07-30T03:40:44.551Z,89.76
2022-07-30T03:41:40.246Z,89.79
2022-07-30T03:42:35.546Z,89.74
2022-07-30T03:43:33.223Z,89.84
2022-07-30T03:44:27.175Z,89.86
2022-07-30T03:45:22.456Z,89.93
2022-07-30T03:46:18.356Z,89.99
2022-07-30T03:47:13.575Z,89.93
2022-07-30T03:48:08.836Z,89.88
2022-07-30T03:49:04.780Z,89.97
2022-07-30T03:50:00.013Z,89.76
2022-07-30T03:50:55.963Z,89.64
2022-07-30T03:51:51.175Z,89.60
2022-07-30T03:52:46.559Z,89.61
2022-07-30T03:53:42.397Z,89.55
2022-07-30T03:54:37.712Z,89.31
2022-07-30T03:55:33.162Z,89.36
2022-07-30T03:56:29.341Z,89.43
2022-07-30T03:57:24.654Z,89.33
2022-07-30T03:58:20.407Z,89.35
2022-07-30T03:59:15.742Z,89.41
2022-07-30T04:00:11.280Z,89.27
2022-07-30T04:01:06.788Z,89.08
2022-07-30T04:02:07.264Z,88.77
2022-07-30T04:02:58.893Z,88.60
2022-07-30T04:03:53.297Z,88.46
2022-07-30T04:04:48.850Z,88.57
2022-07-30T04:05:44.888Z,88.58
2022-07-30T04:06:40.189Z,88.65
2022-07-30T04:07:35.511Z,88.70
2022-07-30T04:08:32.803Z,88.72
2022-07-30T04:09:27.192Z,88.83
2022-07-30T04:10:22.963Z,88.88
2022-07-30T04:11:18.302Z,89.03
2022-07-30T04:12:13.719Z,89.17
2022-07-30T04:13:09.758Z,89.20
2022-07-30T04:14:04.538Z,88.93
2022-07-30T04:14:59.623Z,88.69
2022-07-30T04:16:37.623Z,88.53
2022-07-30T04:16:50.794Z,88.35
2022-07-30T04:17:44.798Z,88.22
2022-07-30T04:18:39.869Z,88.23
2022-07-30T04:19:34.961Z,88.51
2022-07-30T04:20:29.937Z,88.75
2022-07-30T04:21:28.635Z,88.74
2022-07-30T04:22:23.691Z,88.65
2022-07-30T04:23:18.746Z,88.63
2022-07-30T04:24:13.833Z,88.51
2022-07-30T04:25:08.867Z,88.47
2022-07-30T04:26:03.891Z,88.39
2022-07-30T04:26:59.400Z,88.41
2022-07-30T04:27:58.459Z,88.49
2022-07-30T04:28:50.142Z,88.30
2022-07-30T04:29:44.283Z,88.36
2022-07-30T04:30:39.371Z,88.46
2022-07-30T04:31:34.616Z,88.46
2022-07-30T04:32:32.391Z,88.49
2022-07-30T04:33:26.400Z,88.48
2022-07-30T04:34:21.411Z,88.57
2022-07-30T04:35:50.172Z,88.64
2022-07-30T04:36:16.430Z,88.71
2022-07-30T04:37:08.971Z,88.82
2022-07-30T04:38:04.027Z,88.94
2022-07-30T04:38:59.084Z,89.11
2022-07-30T04:39:54.105Z,89.20
2022-07-30T04:40:49.120Z,89.24
2022-07-30T04:41:48.645Z,89.32
2022-07-30T04:42:41.339Z,89.21
2022-07-30T04:43:36.880Z,89.13
2022-07-30T04:44:32.580Z,89.20
2022-07-30T04:45:28.073Z,89.28
2022-07-30T04:46:24.751Z,89.24
2022-07-30T04:47:19.264Z,89.31
2022-07-30T04:48:14.678Z,89.29
2022-07-30T04:49:10.272Z,89.18
2022-07-30T04:50:06.438Z,89.15
2022-07-30T04:51:01.900Z,89.11
2022-07-30T04:51:57.614Z,89.03
2022-07-30T04:52:53.017Z,88.96
2022-07-30T04:53:48.456Z,88.83
2022-07-30T04:54:44.426Z,88.71
2022-07-30T04:55:39.835Z,88.67
2022-07-30T04:56:35.583Z,88.56
2022-07-30T04:57:31.016Z,88.70
2022-07-30T04:58:26.476Z,88.74
2022-07-30T04:59:22.457Z,88.71
2022-07-30T05:00:17.878Z,88.45
2022-07-30T05:01:13.358Z,88.10
2022-07-30T05:02:09.652Z,87.78
2022-07-30T05:03:05.084Z,87.44
2022-07-30T05:04:00.931Z,87.21
2022-07-30T05:04:56.413Z,87.00
2022-07-30T05:05:56.762Z,87.06
2022-07-30T05:06:48.531Z,87.03
2022-07-30T05:07:43.007Z,87.07
2022-07-30T05:08:38.819Z,87.03
2022-07-30T05:09:34.136Z,87.05
2022-07-30T05:10:29.538Z,87.01
2022-07-30T05:11:25.265Z,87.12
2022-07-30T05:12:20.701Z,86.89
2022-07-30T05:13:16.119Z,86.71
2022-07-30T05:14:12.394Z,86.90
2022-07-30T05:15:07.771Z,86.94
2022-07-30T05:16:03.749Z,86.67
2022-07-30T05:16:59.369Z,86.50
2022-07-30T05:17:54.670Z,86.34
2022-07-30T05:18:50.399Z,85.96
2022-07-30T05:19:45.809Z,86.12
2022-07-30T05:20:41.688Z,86.17
2022-07-30T05:21:37.007Z,86.03
2022-07-30T05:22:32.449Z,85.72
2022-07-30T05:23:28.210Z,85.53
2022-07-30T05:24:23.616Z,85.29
2022-07-30T05:25:19.044Z,85.36
2022-07-30T05:26:15.326Z,85.54
2022-07-30T05:27:10.774Z,85.56
2022-07-30T05:28:06.637Z,85.48
2022-07-30T05:29:04.075Z,85.01
2022-07-30T05:29:58.957Z,84.86
2022-07-30T05:30:53.443Z,84.86
2022-07-30T05:31:49.277Z,85.07
2022-07-30T05:32:44.711Z,85.06
2022-07-30T05:33:42.466Z,85.03
2022-07-30T05:34:35.173Z,85.03
2022-07-30T05:35:30.316Z,84.86
2022-07-30T05:36:29.123Z,84.84
2022-07-30T05:37:24.681Z,84.60
2022-07-30T05:38:19.987Z,84.44
2022-07-30T05:39:15.754Z,84.37
2022-07-30T05:40:11.183Z,83.94
2022-07-30T05:41:19.042Z,83.83
2022-07-30T05:42:04.114Z,83.94
2022-07-30T05:42:58.624Z,83.89
2022-07-30T05:43:55.953Z,83.68
2022-07-30T05:44:49.717Z,83.47
2022-07-30T05:45:45.172Z,83.01
2022-07-30T05:46:40.803Z,82.68
2022-07-30T05:47:36.659Z,82.57
2022-07-30T05:48:32.013Z,82.52
2022-07-30T05:49:27.555Z,82.47
2022-07-30T05:50:23.267Z,82.33
2022-07-30T05:51:18.688Z,81.06
2022-07-30T05:52:14.120Z,80.72
2022-07-30T05:53:10.449Z,80.71
2022-07-30T05:54:05.850Z,80.71
2022-07-30T05:55:01.709Z,80.62
2022-07-30T05:55:57.144Z,80.87
2022-07-30T05:56:52.568Z,80.50
2022-07-30T05:57:48.286Z,80.20
2022-07-30T05:58:43.706Z,79.95
2022-07-30T05:59:39.566Z,80.06
2022-07-30T06:00:34.887Z,80.14
2022-07-30T06:01:30.349Z,80.03
2022-07-30T06:02:25.758Z,79.10
2022-07-30T06:03:21.205Z,79.23
2022-07-30T06:04:18.023Z,79.26
2022-07-30T06:05:13.464Z,79.35
2022-07-30T06:06:08.928Z,79.75
2022-07-30T06:07:04.896Z,78.86
2022-07-30T06:08:00.198Z,78.97
2022-07-30T06:08:55.643Z,78.62
2022-07-30T06:09:51.084Z,78.55
2022-07-30T06:10:47.311Z,78.68
2022-07-30T06:11:42.742Z,78.37
2022-07-30T06:12:38.171Z,79.11
2022-07-30T06:13:36.862Z,78.39
2022-07-30T06:14:32.417Z,78.98
2022-07-30T06:15:27.710Z,78.98
2022-07-30T06:16:23.388Z,79.14
2022-07-30T06:17:18.413Z,79.23
2022-07-30T06:18:13.447Z,79.43
2022-07-30T06:19:08.516Z,79.58
2022-07-30T06:20:08.452Z,79.29
2022-07-30T06:21:02.519Z,78.88
2022-07-30T06:22:05.609Z,78.42
2022-07-30T06:22:53.580Z,78.58
2022-07-30T06:23:47.679Z,78.59
2022-07-30T06:24:42.689Z,78.15
2022-07-30T06:25:38.919Z,77.96
2022-07-30T06:26:32.732Z,78.67
2022-07-30T06:27:31.296Z,78.51
2022-07-30T06:28:39.417Z,78.35
2022-07-30T06:29:19.787Z,78.09
2022-07-30T06:30:14.550Z,78.16
2022-07-30T06:31:10.035Z,78.82
2022-07-30T06:32:05.431Z,78.63
2022-07-30T06:33:01.939Z,77.73
2022-07-30T06:33:57.371Z,77.93
2022-07-30T06:35:01.009Z,78.07
2022-07-30T06:35:49.502Z,77.82
2022-07-30T06:36:44.071Z,77.59
2022-07-30T06:38:00.671Z,77.29
2022-07-30T06:38:36.747Z,77.10
2022-07-30T06:39:55.976Z,77.32
2022-07-30T06:40:28.171Z,77.15
2022-07-30T06:41:22.676Z,77.11
2022-07-30T06:42:18.079Z,77.07
2022-07-30T06:43:13.910Z,76.86
2022-07-30T06:44:09.233Z,76.75
2022-07-30T06:45:04.708Z,75.14
2022-07-30T06:46:00.551Z,75.40
2022-07-30T06:46:55.849Z,75.78
2022-07-30T06:47:51.396Z,75.85
2022-07-30T06:48:47.655Z,75.81
2022-07-30T06:49:43.042Z,75.74
2022-07-30T06:50:38.911Z,75.08
2022-07-30T06:51:34.451Z,75.23
2022-07-30T06:52:29.724Z,75.35
2022-07-30T06:53:25.442Z,74.66
2022-07-30T06:54:20.844Z,75.50
2022-07-30T06:55:16.691Z,75.31
2022-07-30T06:56:11.986Z,74.58
2022-07-30T06:57:07.391Z,74.84
2022-07-30T06:58:03.114Z,74.89
2022-07-30T06:58:58.551Z,74.33
2022-07-30T06:59:56.426Z,74.31
2022-07-30T07:00:50.248Z,74.55
2022-07-30T07:01:45.736Z,74.65
2022-07-30T07:02:41.609Z,75.16
2022-07-30T07:03:39.589Z,74.92
2022-07-30T07:04:32.586Z,74.58
2022-07-30T07:05:27.587Z,73.98
2022-07-30T07:06:22.597Z,72.77
2022-07-30T07:07:40.244Z,73.17
2022-07-30T07:08:19.186Z,72.92
2022-07-30T07:09:14.208Z,71.64
2022-07-30T07:10:09.699Z,72.18
2022-07-30T07:11:05.388Z,71.99
2022-07-30T07:12:00.790Z,71.31
2022-07-30T07:12:56.250Z,70.94
2022-07-30T07:13:51.954Z,71.42
2022-07-30T07:14:47.382Z,71.25
2022-07-30T07:15:42.808Z,71.39
2022-07-30T07:16:39.495Z,71.06
2022-07-30T07:17:34.962Z,70.28
2022-07-30T07:18:30.691Z,70.22
2022-07-30T07:20:01.293Z,68.53
2022-07-30T07:20:22.961Z,68.20
2022-07-30T07:21:17.421Z,66.90
2022-07-30T07:22:13.241Z,66.87
2022-07-30T07:23:09.303Z,67.00
2022-07-30T07:24:03.929Z,66.75
2022-07-30T07:24:59.643Z,66.23
2022-07-30T07:25:55.184Z,65.33
2022-07-30T07:26:50.711Z,64.83
2022-07-30T07:27:46.875Z,64.27
2022-07-30T07:28:43.289Z,63.22
2022-07-30T07:29:38.230Z,63.33
2022-07-30T07:30:33.563Z,62.94
2022-07-30T07:32:06.033Z,62.69
2022-07-30T07:32:25.782Z,62.51
2022-07-30T07:33:20.349Z,63.77
2022-07-30T07:34:17.244Z,62.54
2022-07-30T07:35:11.420Z,63.10
2022-07-30T07:36:06.927Z,62.57
2022-07-30T07:37:03.733Z,63.24
2022-07-30T07:37:59.133Z,64.75
2022-07-30T07:38:54.554Z,64.09
2022-07-30T07:39:50.090Z,62.77
2022-07-30T07:40:45.579Z,62.30
2022-07-30T07:41:48.445Z,60.30
2022-07-30T07:42:40.402Z,59.87
2022-07-30T07:43:35.966Z,58.76
2022-07-30T07:44:31.456Z,56.69
2022-07-30T07:45:26.989Z,57.53
2022-07-30T07:46:33.627Z,58.24
2022-07-30T07:47:19.236Z,58.48
2022-07-30T07:48:13.659Z,56.76
2022-07-30T07:49:09.240Z,54.90
2022-07-30T07:50:04.214Z,55.15
2022-07-30T07:51:00.546Z,55.67
2022-07-30T07:51:54.247Z,55.27
2022-07-30T07:52:49.432Z,55.52
2022-07-30T07:53:52.112Z,55.61
2022-07-30T07:54:40.516Z,55.23
2022-07-30T07:55:34.596Z,54.16
2022-07-30T07:56:29.676Z,54.67
2022-07-30T07:57:24.911Z,54.25
2022-07-30T07:58:25.426Z,54.47
2022-07-30T07:59:16.048Z,53.08
2022-07-30T08:00:10.139Z,53.03
2022-07-30T08:01:05.273Z,52.69
2022-07-30T08:02:00.661Z,52.99
2022-07-30T08:02:56.962Z,52.56
2022-07-30T08:03:52.293Z,52.28
2022-07-30T08:04:48.156Z,51.67
2022-07-30T08:06:01.984Z,51.83
2022-07-30T08:06:40.466Z,51.71
2022-07-30T08:07:35.061Z,51.35
2022-07-30T08:08:31.060Z,51.22
2022-07-30T08:09:26.381Z,50.91
2022-07-30T08:10:23.260Z,51.87
2022-07-30T08:11:17.770Z,51.66
2022-07-30T08:12:13.625Z,50.04
2022-07-30T08:13:48.608Z,50.13
2022-07-30T08:14:06.100Z,51.04
2022-07-30T08:15:00.707Z,48.97
2022-07-30T08:15:56.604Z,49.27
2022-07-30T08:16:52.008Z,50.53
2022-07-30T08:17:47.428Z,51.26
2022-07-30T08:18:43.166Z,50.91
2022-07-30T08:19:38.749Z,49.37
2022-07-30T08:20:34.675Z,48.95
2022-07-30T08:21:29.852Z,49.62
2022-07-30T08:22:25.291Z,49.14
2022-07-30T08:23:21.022Z,48.61
2022-07-30T08:24:16.437Z,48.41
2022-07-30T08:25:11.913Z,48.43
2022-07-30T08:26:09.193Z,48.67
2022-07-30T08:27:04.167Z,47.79
2022-07-30T08:27:59.766Z,47.21
2022-07-30T08:28:55.226Z,47.72
2022-07-30T08:29:50.686Z,47.69
2022-07-30T08:30:46.433Z,46.71
2022-07-30T08:31:41.995Z,47.41
2022-07-30T08:32:37.866Z,47.65
2022-07-30T08:33:33.198Z,47.37
2022-07-30T08:34:28.632Z,47.27
2022-07-30T08:35:24.395Z,47.03
2022-07-30T08:36:24.106Z,46.78
2022-07-30T08:37:16.273Z,46.05
2022-07-30T08:38:10.646Z,47.83
2022-07-30T08:39:06.521Z,48.69
2022-07-30T08:40:02.156Z,47.78
2022-07-30T08:40:57.479Z,46.62
2022-07-30T08:41:53.997Z,46.95
2022-07-30T08:42:49.494Z,46.32
2022-07-30T08:43:45.350Z,47.01
2022-07-30T08:44:40.793Z,46.77
2022-07-30T08:45:36.307Z,45.31
2022-07-30T08:46:32.150Z,44.78
2022-07-30T08:47:27.575Z,45.83
2022-07-30T08:48:23.334Z,45.42
2022-07-30T08:49:18.789Z,44.84
2022-07-30T08:50:16.709Z,43.47
2022-07-30T08:51:10.221Z,44.19
2022-07-30T08:52:05.674Z,43.87
2022-07-30T08:53:01.089Z,45.77
2022-07-30T08:53:56.446Z,45.10
2022-07-30T08:54:52.312Z,44.42
2022-07-30T08:55:47.767Z,43.94
2022-07-30T08:56:43.082Z,43.76
2022-07-30T08:57:38.956Z,43.60
2022-07-30T08:58:34.429Z,43.59
2022-07-30T09:00:00.062Z,44.56
2022-07-30T09:00:26.663Z,42.02
2022-07-30T09:01:21.586Z,41.81
2022-07-30T09:02:16.890Z,42.34
2022-07-30T09:03:13.741Z,43.22
2022-07-30T09:04:07.964Z,42.81
2022-07-30T09:05:03.398Z,42.03
2022-07-30T09:06:00.095Z,41.04
2022-07-30T09:06:55.297Z,40.85
2022-07-30T09:07:50.739Z,42.53
2022-07-30T09:08:47.042Z,41.46
2022-07-30T09:09:42.618Z,42.11
2022-07-30T09:10:38.102Z,42.61
2022-07-30T09:11:33.473Z,41.16
2022-07-30T09:12:29.748Z,40.84
2022-07-30T09:13:25.186Z,41.89
2022-07-30T09:14:20.496Z,40.42
2022-07-30T09:15:16.077Z,41.19
2022-07-30T09:16:12.408Z,39.19
2022-07-30T09:17:07.812Z,38.83
2022-07-30T09:18:03.663Z,39.08
2022-07-30T09:18:59.284Z,38.66
2022-07-30T09:19:54.798Z,38.73
2022-07-30T09:20:50.650Z,40.38
2022-07-30T09:21:46.223Z,40.88
2022-07-30T09:22:42.074Z,39.96
2022-07-30T09:23:37.407Z,40.83
2022-07-30T09:24:32.847Z,42.22
2022-07-30T09:25:28.588Z,41.19
2022-07-30T09:26:24.055Z,41.45
2022-07-30T09:27:19.494Z,40.83
2022-07-30T09:28:16.897Z,40.22
2022-07-30T09:29:11.264Z,40.56
2022-07-30T09:30:07.093Z,41.03
2022-07-30T09:31:02.585Z,40.24
2022-07-30T09:31:58.206Z,39.69
2022-07-30T09:32:53.784Z,39.65
2022-07-30T09:33:49.445Z,39.74
2022-07-30T09:34:45.274Z,39.73
2022-07-30T09:35:40.614Z,40.35
2022-07-30T09:36:36.075Z,39.79
2022-07-30T09:37:31.812Z,39.94
2022-07-30T09:38:27.223Z,40.65
2022-07-30T09:39:22.669Z,40.48
2022-07-30T09:40:18.946Z,38.95
2022-07-30T09:41:36.124Z,39.54
2022-07-30T09:42:11.373Z,40.12
2022-07-30T09:43:05.822Z,39.66
2022-07-30T09:44:01.257Z,40.35
2022-07-30T09:44:56.981Z,41.17
2022-07-30T09:45:57.159Z,40.60
2022-07-30T09:46:49.402Z,40.61
2022-07-30T09:47:43.771Z,39.81
2022-07-30T09:48:39.413Z,39.51
2022-07-30T09:49:35.783Z,39.14
2022-07-30T09:50:31.149Z,38.82
2022-07-30T09:51:56.359Z,38.54
2022-07-30T09:52:27.032Z,39.01
2022-07-30T09:53:19.224Z,38.75
2022-07-30T09:54:14.113Z,39.92
2022-07-30T09:55:09.370Z,39.53
2022-07-30T09:56:04.875Z,39.05
2022-07-30T09:57:01.295Z,39.93
2022-07-30T09:57:57.705Z,39.34
2022-07-30T09:58:52.442Z,40.04
2022-07-30T09:59:47.892Z,39.83
2022-07-30T10:00:43.403Z,39.71
2022-07-30T10:01:49.531Z,38.39
2022-07-30T10:02:35.763Z,38.93
2022-07-30T10:03:34.181Z,38.80
2022-07-30T10:04:26.190Z,39.72
2022-07-30T10:05:20.353Z,40.55
2022-07-30T10:06:15.356Z,40.44
2022-07-30T10:07:10.480Z,40.03
2022-07-30T10:08:09.450Z,39.31
2022-07-30T10:09:01.461Z,39.18
2022-07-30T10:09:56.554Z,39.24
2022-07-30T10:10:51.107Z,39.46
2022-07-30T10:11:46.162Z,39.38
2022-07-30T10:12:41.869Z,39.33
2022-07-30T10:13:37.377Z,39.96
2022-07-30T10:14:33.194Z,40.08
2022-07-30T10:15:28.508Z,41.22
2022-07-30T10:16:24.058Z,41.52
2022-07-30T10:17:19.134Z,41.27
2022-07-30T10:18:14.146Z,41.93
2022-07-30T10:19:18.041Z,43.06
2022-07-30T10:20:08.255Z,43.35
2022-07-30T10:21:00.047Z,42.19
2022-07-30T10:21:55.492Z,42.19
2022-07-30T10:22:50.961Z,41.52
2022-07-30T10:24:43.120Z,42.24
2022-07-30T10:24:46.592Z,41.53
2022-07-30T10:25:49.049Z,41.53
2022-07-30T10:26:34.327Z,42.19
2022-07-30T10:27:29.029Z,42.70
2022-07-30T10:28:24.414Z,42.92
2022-07-30T10:29:20.061Z,43.18
2022-07-30T10:30:15.617Z,43.75
2022-07-30T10:31:48.388Z,44.49
2022-07-30T10:32:09.401Z,43.74
2022-07-30T10:33:02.414Z,44.15
2022-07-30T10:33:57.834Z,45.09
2022-07-30T10:34:53.204Z,45.23
2022-07-30T10:35:49.609Z,45.64
2022-07-30T10:36:46.813Z,44.20
2022-07-30T10:37:42.145Z,43.17
2022-07-30T10:38:39.189Z,43.79
2022-07-30T10:39:34.731Z,42.43
2022-07-30T10:40:30.797Z,42.14
2022-07-30T10:41:42.887Z,41.68
2022-07-30T10:42:20.296Z,41.65
2022-07-30T10:43:15.990Z,41.92
2022-07-30T10:44:09.464Z,42.06
2022-07-30T10:45:04.517Z,42.55
2022-07-30T10:45:59.523Z,42.19
2022-07-30T10:46:54.613Z,42.26
2022-07-30T10:47:49.917Z,43.42
2022-07-30T10:48:44.762Z,44.95
2022-07-30T10:49:40.985Z,43.63
2022-07-30T10:50:34.904Z,44.36
2022-07-30T10:51:34.696Z,44.11
2022-07-30T10:52:28.881Z,43.33
2022-07-30T10:53:26.917Z,43.40
2022-07-30T10:54:18.987Z,43.95
2022-07-30T10:55:13.073Z,43.77
2022-07-30T10:56:08.190Z,43.88
2022-07-30T10:57:03.500Z,44.57
2022-07-30T10:57:58.213Z,44.53
2022-07-30T10:58:53.813Z,45.46
2022-07-30T10:59:49.202Z,43.96
2022-07-30T11:00:44.720Z,44.15
2022-07-30T11:01:39.759Z,45.50
2022-07-30T11:02:34.794Z,45.50
2022-07-30T11:03:40.410Z,44.76
2022-07-30T11:04:26.865Z,43.79
2022-07-30T11:05:27.383Z,44.09
2022-07-30T11:06:17.053Z,44.42
2022-07-30T11:07:17.104Z,44.21
2022-07-30T11:08:07.290Z,46.55
2022-07-30T11:09:02.746Z,44.85
2022-07-30T11:10:05.372Z,44.00
2022-07-30T11:10:55.734Z,43.88
2022-07-30T11:12:01.977Z,43.90
2022-07-30T11:12:46.840Z,42.81
2022-07-30T11:13:42.612Z,41.68
2022-07-30T11:14:37.140Z,41.26
2022-07-30T11:15:33.189Z,41.41
2022-07-30T11:16:29.254Z,40.01
2022-07-30T11:17:24.031Z,40.20
2022-07-30T11:18:19.580Z,40.14
2022-07-30T11:19:56.793Z,39.40
2022-07-30T11:20:12.131Z,39.94
2022-07-30T11:21:07.631Z,39.51
2022-07-30T11:22:04.433Z,38.69
2022-07-30T11:22:58.939Z,39.15
2022-07-30T11:23:54.961Z,39.84
2022-07-30T11:24:49.966Z,39.92
2022-07-30T11:25:52.016Z,39.86
2022-07-30T11:26:42.497Z,39.28
2022-07-30T11:27:36.907Z,38.94
2022-07-30T11:28:31.873Z,38.25
2022-07-30T11:29:33.022Z,38.52
2022-07-30T11:30:23.533Z,38.88
2022-07-30T11:31:17.073Z,38.55
2022-07-30T11:32:12.753Z,38.57
2022-07-30T11:33:07.337Z,38.52
2022-07-30T11:34:02.355Z,38.24
2022-07-30T11:35:01.587Z,37.49
2022-07-30T11:35:56.657Z,38.13
2022-07-30T11:36:51.726Z,38.54
2022-07-30T11:37:52.220Z,38.99
2022-07-30T11:38:42.817Z,37.67
2022-07-30T11:39:39.366Z,37.91
2022-07-30T11:40:31.917Z,37.55
2022-07-30T11:41:26.978Z,38.05
2022-07-30T11:42:22.014Z,38.47
2022-07-30T11:43:17.182Z,37.17
2022-07-30T11:44:12.557Z,37.53
2022-07-30T11:45:08.407Z,38.35
2022-07-30T11:46:03.975Z,38.99
2022-07-30T11:46:59.501Z,40.03
2022-07-30T11:47:55.072Z,40.64
2022-07-30T11:48:50.650Z,40.62
2022-07-30T11:49:46.474Z,41.54
2022-07-30T11:50:41.830Z,41.48
2022-07-30T11:51:37.252Z,40.65
2022-07-30T11:52:33.063Z,40.05
2022-07-30T11:53:28.480Z,40.74
2022-07-30T11:54:23.954Z,40.44